Time;durP1;ratioP1;P1;durP2;ratioP2;P2;SDS_P1;SDS_P2;PMS_P1;PMS_P2;Temp;Humidity;BMP_temperature;BMP_pressure;BME280_temperature;BME280_humidity;BME280_pressure;Samples;Min_cycle;Max_cycle;Signal;HPM_P1;HPM_P2
2022/08/25 00:02:20;;;;;;;15.50;4.30;;;;;;;22.61;33.77;99527.40;25112;1316;3026680;-71
2022/08/25 00:04:49;;;;;;;12.60;4.10;;;;;;;22.59;33.44;99527.64;25073;1316;3070605;-70
2022/08/25 00:07:18;;;;;;;18.80;4.00;;;;;;;22.58;33.54;99528.46;25049;1316;3027339;-69
2022/08/25 00:09:49;;;;;;;18.90;5.00;;;;;;;22.55;33.78;99527.52;25038;1314;3053612;-73
2022/08/25 00:12:19;;;;;;;10.50;4.20;;;;;;;22.50;33.91;99530.43;25034;1316;3026692;-62
2022/08/25 00:14:48;;;;;;;18.10;4.30;;;;;;;22.48;33.92;99534.74;25097;1316;3026390;-65
2022/08/25 00:17:18;;;;;;;14.10;4.30;;;;;;;22.48;33.73;99526.91;25118;1316;3026271;-65
2022/08/25 00:19:47;;;;;;;18.80;4.30;;;;;;;22.44;33.53;99524.81;25085;1319;3070540;-71
2022/08/25 00:22:16;;;;;;;11.60;4.20;;;;;;;22.44;33.49;99525.52;25152;1316;3026712;-68
2022/08/25 00:24:45;;;;;;;16.90;4.00;;;;;;;22.41;33.55;99521.80;25091;1316;3052816;-78
2022/08/25 00:27:14;;;;;;;12.10;3.90;;;;;;;22.43;33.54;99524.71;25131;1317;3027203;-70
2022/08/25 00:29:43;;;;;;;12.40;4.20;;;;;;;22.44;33.57;99525.67;25092;1316;3054889;-74
2022/08/25 00:32:12;;;;;;;12.80;4.30;;;;;;;22.42;33.39;99530.86;25174;1316;3026415;-69
2022/08/25 00:34:41;;;;;;;8.50;3.80;;;;;;;22.43;33.36;99526.66;25087;1319;3053093;-70
2022/08/25 00:37:10;;;;;;;13.10;4.00;;;;;;;22.43;33.39;99530.66;25106;1319;3026675;-72
2022/08/25 00:39:39;;;;;;;15.30;4.20;;;;;;;22.41;33.43;99530.27;25129;1316;3058424;-69
2022/08/25 00:42:09;;;;;;;10.70;3.80;;;;;;;22.44;33.34;99532.27;25052;1316;3026958;-72
2022/08/25 00:44:38;;;;;;;16.30;3.40;;;;;;;22.45;33.21;99532.87;25120;1316;3052046;-68
2022/08/25 00:47:08;;;;;;;12.00;3.80;;;;;;;22.40;33.46;99529.33;25167;1316;3026050;-68
2022/08/25 00:49:46;;;;;;;10.70;3.20;;;;;;;22.41;33.06;99527.42;25094;1315;3026507;-71
2022/08/25 00:52:19;;;;;;;12.50;3.70;;;;;;;22.44;33.07;99528.70;25171;1316;3056739;-70
2022/08/25 00:54:53;;;;;;;10.60;3.60;;;;;;;22.42;32.85;99531.30;25117;1316;3026566;-70
2022/08/25 00:57:27;;;;;;;11.40;3.50;;;;;;;22.42;33.12;99532.17;25089;1316;3070225;-64
2022/08/25 00:59:56;;;;;;;8.90;3.60;;;;;;;22.36;33.34;99533.50;25114;1319;3051458;-71
2022/08/25 01:02:25;;;;;;;19.50;3.60;;;;;;;22.37;33.11;99536.63;25081;1315;3026933;-66
2022/08/25 01:04:54;;;;;;;14.30;3.80;;;;;;;22.38;33.04;99532.91;25090;1316;3070639;-71
2022/08/25 01:07:23;;;;;;;20.10;3.90;;;;;;;22.42;32.66;99537.52;25128;1316;3026973;-72
2022/08/25 01:09:52;;;;;;;9.40;3.20;;;;;;;22.43;32.93;99535.30;25055;1316;3027034;-74
2022/08/25 01:12:21;;;;;;;13.80;3.90;;;;;;;22.37;33.32;99533.98;25033;1316;3069706;-75
2022/08/25 01:14:50;;;;;;;12.80;3.60;;;;;;;22.39;33.07;99535.15;25089;1316;3026518;-71
2022/08/25 01:17:21;;;;;;;14.40;3.90;;;;;;;22.41;33.07;99539.23;25165;1318;3052224;-71
2022/08/25 01:24:00;;;;;;;12.30;3.50;;;;;;;22.37;33.27;99535.21;25085;1316;3055710;-65
2022/08/25 01:26:31;;;;;;;14.60;3.40;;;;;;;22.29;33.31;99537.13;25139;1316;3026309;-73
2022/08/25 01:29:21;;;;;;;12.00;3.20;;;;;;;22.31;33.37;99532.69;25079;1316;3050159;-71
2022/08/25 01:31:55;;;;;;;11.80;3.20;;;;;;;22.29;33.34;99537.60;25155;1316;3052647;-63
2022/08/25 01:34:29;;;;;;;13.00;3.90;;;;;;;22.26;33.31;99537.77;25280;1316;3051140;-68
2022/08/25 01:36:58;;;;;;;11.00;3.30;;;;;;;22.23;33.59;99535.79;25165;1316;3069214;-67
2022/08/25 01:39:28;;;;;;;11.50;4.10;;;;;;;22.24;33.55;99538.23;25220;1316;3026468;-73
2022/08/25 01:42:23;;;;;;;12.70;3.70;;;;;;;22.26;33.54;99537.46;25146;1316;3050069;-75
2022/08/25 01:44:53;;;;;;;9.50;3.30;;;;;;;22.22;33.76;99534.67;25069;1316;3069237;-66
2022/08/25 01:47:23;;;;;;;13.70;3.30;;;;;;;22.21;33.66;99535.83;25099;1316;3026660;-65
2022/08/25 01:49:52;;;;;;;7.90;3.20;;;;;;;22.19;34.13;99533.21;25098;1316;3026325;-70
2022/08/25 01:52:29;;;;;;;13.10;2.90;;;;;;;22.21;33.69;99539.27;25100;1316;3026324;-61
2022/08/25 01:54:58;;;;;;;15.00;3.70;;;;;;;22.17;34.19;99536.62;25063;1316;3051004;-71
2022/08/25 01:57:29;;;;;;;11.60;3.30;;;;;;;22.15;34.38;99535.82;25081;1316;3026483;-74
2022/08/25 02:00:00;;;;;;;9.80;3.10;;;;;;;22.10;34.44;99540.36;25069;1316;3071109;-72
2022/08/25 02:02:29;;;;;;;12.60;3.20;;;;;;;22.10;34.38;99538.03;25171;1316;3026428;-67
2022/08/25 02:04:58;;;;;;;11.70;3.20;;;;;;;22.12;34.15;99538.23;25078;1316;3026665;-72
2022/08/25 02:07:27;;;;;;;15.40;3.30;;;;;;;22.12;34.09;99534.36;25107;1316;3068352;-68
2022/08/25 02:09:56;;;;;;;15.30;3.80;;;;;;;22.09;34.47;99537.13;25100;1316;3026896;-72
2022/08/25 02:12:25;;;;;;;11.10;4.00;;;;;;;22.03;34.58;99530.27;25153;1316;3050438;-76
2022/08/25 02:14:54;;;;;;;16.20;3.40;;;;;;;22.02;34.60;99532.70;25117;1316;3026523;-70
2022/08/25 02:17:23;;;;;;;9.00;3.60;;;;;;;22.00;34.56;99539.13;25247;1316;3053453;-66
2022/08/25 02:19:54;;;;;;;18.50;3.60;;;;;;;22.00;34.35;99542.20;25092;1316;3026613;-72
2022/08/25 02:22:24;;;;;;;19.30;3.50;;;;;;;22.02;34.33;99537.75;25133;1316;3048820;-68
2022/08/25 02:24:53;;;;;;;13.50;3.70;;;;;;;22.02;34.42;99540.70;25193;1315;3027227;-71
2022/08/25 02:27:23;;;;;;;11.60;3.70;;;;;;;21.99;34.53;99534.77;25122;1316;3026626;-68
2022/08/25 02:29:52;;;;;;;10.30;3.00;;;;;;;21.96;34.55;99533.33;25083;1316;3026697;-72
2022/08/25 02:32:21;;;;;;;10.20;3.50;;;;;;;21.94;34.45;99535.37;25110;1316;3026589;-72
2022/08/25 02:34:50;;;;;;;13.00;3.40;;;;;;;21.93;34.52;99544.86;25098;1316;3050676;-68
2022/08/25 02:37:19;;;;;;;12.70;3.40;;;;;;;21.92;34.71;99543.25;25139;1316;3026465;-68
2022/08/25 02:39:48;;;;;;;9.60;3.20;;;;;;;21.85;35.35;99548.05;25114;1316;3055043;-70
2022/08/25 02:42:18;;;;;;;15.80;3.80;;;;;;;21.80;35.57;99553.83;25111;1316;3026822;-66
2022/08/25 02:44:47;;;;;;;15.60;3.50;;;;;;;21.75;35.77;99559.61;25125;1316;3026937;-71
2022/08/25 02:47:16;;;;;;;13.40;3.90;;;;;;;21.69;36.08;99557.78;25135;1316;3053901;-73
2022/08/25 02:49:45;;;;;;;15.00;3.90;;;;;;;21.62;36.39;99558.56;25085;1316;3026190;-68
2022/08/25 02:52:14;;;;;;;9.10;3.20;;;;;;;21.57;36.05;99552.08;25053;1316;3051637;-76
2022/08/25 02:54:43;;;;;;;11.00;3.60;;;;;;;21.56;36.39;99555.60;25210;1316;3026539;-71
2022/08/25 02:57:14;;;;;;;8.80;3.70;;;;;;;21.55;36.29;99558.07;25083;1316;3058303;-70
2022/08/25 02:59:47;;;;;;;13.30;3.50;;;;;;;21.52;36.70;99564.39;25108;1315;3027401;-67
2022/08/25 03:02:16;;;;;;;11.10;4.00;;;;;;;21.44;36.96;99561.73;25120;1315;3026270;-64
2022/08/25 03:04:46;;;;;;;12.40;3.90;;;;;;;21.40;36.78;99564.67;25054;1316;3026636;-69
2022/08/25 03:07:16;;;;;;;12.00;4.00;;;;;;;21.40;36.97;99566.17;25124;1316;3049079;-68
2022/08/25 03:09:45;;;;;;;9.00;3.80;;;;;;;21.37;37.20;99565.03;25174;1316;3026621;-69
2022/08/25 03:12:19;;;;;;;11.30;3.40;;;;;;;21.35;37.16;99570.73;25160;1316;3053980;-69
2022/08/25 03:14:48;;;;;;;16.80;4.00;;;;;;;21.32;37.42;99569.78;25148;1315;3026287;-70
2022/08/25 03:17:17;;;;;;;10.90;3.70;;;;;;;21.28;37.43;99571.30;25121;1314;3026461;-78
2022/08/25 03:19:46;;;;;;;13.80;3.50;;;;;;;21.27;37.63;99564.55;25125;1316;3052958;-69
2022/08/25 03:22:15;;;;;;;7.90;3.10;;;;;;;21.29;37.43;99566.00;25059;1315;3027011;-70
2022/08/25 03:24:44;;;;;;;12.00;3.60;;;;;;;21.28;37.82;99568.05;25178;1315;3055428;-74
2022/08/25 03:27:13;;;;;;;11.30;3.20;;;;;;;21.28;37.72;99571.30;25176;1316;3026249;-68
2022/08/25 03:29:42;;;;;;;12.30;3.20;;;;;;;21.29;37.64;99571.20;25114;1316;3050769;-70
2022/08/25 03:32:11;;;;;;;7.90;3.70;;;;;;;21.29;37.84;99571.19;25108;1316;3026931;-67
2022/08/25 03:34:40;;;;;;;12.70;3.70;;;;;;;21.26;37.85;99576.30;25134;1316;3058355;-69
2022/08/25 03:37:09;;;;;;;12.10;3.20;;;;;;;21.25;37.98;99574.45;25123;1316;3026506;-70
2022/08/25 03:39:38;;;;;;;12.50;3.60;;;;;;;21.26;37.78;99571.71;25120;1316;3054761;-62
2022/08/25 03:42:07;;;;;;;15.50;3.40;;;;;;;21.26;38.10;99577.23;25114;1316;3028470;-71
2022/08/25 03:44:37;;;;;;;15.60;3.80;;;;;;;21.26;38.19;99577.03;25037;1316;3054226;-66
2022/08/25 03:47:06;;;;;;;9.90;4.30;;;;;;;21.25;38.25;99574.48;25058;1315;3026375;-62
2022/08/25 03:49:35;;;;;;;16.10;3.70;;;;;;;21.23;38.43;99572.30;25096;1316;3051532;-66
2022/08/25 03:52:04;;;;;;;9.70;3.30;;;;;;;21.26;38.33;99571.69;25074;1314;3026674;-64
2022/08/25 03:54:33;;;;;;;13.70;4.10;;;;;;;21.24;38.61;99573.61;25140;1314;3069251;-67
2022/08/25 03:57:02;;;;;;;10.50;3.40;;;;;;;21.27;38.56;99573.19;25048;1316;3026671;-73
2022/08/25 03:59:33;;;;;;;11.40;3.50;;;;;;;21.30;38.25;99568.36;25078;1315;3050789;-68
2022/08/25 04:02:03;;;;;;;11.00;4.10;;;;;;;21.25;38.69;99572.48;25060;1316;3026909;-71
2022/08/25 04:04:33;;;;;;;21.30;3.80;;;;;;;21.30;38.66;99573.20;25114;1314;3027013;-66
2022/08/25 04:07:04;;;;;;;7.90;3.20;;;;;;;21.33;38.78;99569.92;25160;1316;3026280;-69
2022/08/25 04:09:33;;;;;;;12.30;3.60;;;;;;;21.31;38.84;99575.41;25116;1316;3026128;-69
2022/08/25 04:12:02;;;;;;;17.70;4.60;;;;;;;21.32;38.75;99572.71;25119;1315;3051171;-67
2022/08/25 04:14:33;;;;;;;8.10;3.40;;;;;;;21.32;39.15;99569.61;25188;1315;3029027;-69
2022/08/25 04:17:03;;;;;;;9.50;3.80;;;;;;;21.34;38.86;99572.46;25246;1315;3027539;-68
2022/08/25 04:19:32;;;;;;;8.90;4.00;;;;;;;21.36;39.16;99571.41;25139;1316;3048999;-74
2022/08/25 04:22:01;;;;;;;16.60;4.00;;;;;;;21.37;39.15;99575.38;25205;1315;3026249;-70
2022/08/25 04:24:30;;;;;;;10.40;3.20;;;;;;;21.36;39.16;99577.62;25042;1316;3070650;-72
2022/08/25 04:26:59;;;;;;;11.20;3.20;;;;;;;21.39;39.29;99569.48;25123;1316;3027294;-70
2022/08/25 04:29:29;;;;;;;13.60;4.00;;;;;;;21.44;38.88;99570.49;25158;1316;3053298;-69
2022/08/25 04:31:58;;;;;;;9.50;3.60;;;;;;;21.48;39.28;99573.67;25086;1316;3026975;-70
2022/08/25 04:34:27;;;;;;;14.80;3.60;;;;;;;21.47;39.42;99577.19;25100;1315;3053691;-70
2022/08/25 04:36:58;;;;;;;8.80;3.50;;;;;;;21.54;39.23;99576.60;25094;1316;3026532;-74
2022/08/25 04:39:27;;;;;;;13.30;3.90;;;;;;;21.56;39.35;99576.79;25117;1316;3048637;-69
2022/08/25 04:41:56;;;;;;;14.70;4.00;;;;;;;21.59;39.41;99576.33;25057;1315;3029168;-66
2022/08/25 04:44:26;;;;;;;12.90;4.00;;;;;;;21.62;39.62;99575.63;25119;1316;3058394;-71
2022/08/25 04:46:55;;;;;;;11.20;3.80;;;;;;;21.63;39.65;99572.33;25049;1316;3026213;-70
2022/08/25 04:49:24;;;;;;;8.20;3.60;;;;;;;21.67;39.79;99573.38;25219;1315;3026278;-65
2022/08/25 04:51:53;;;;;;;9.10;4.10;;;;;;;21.71;39.58;99573.45;25130;1316;3058628;-67
2022/08/25 04:54:22;;;;;;;13.40;4.00;;;;;;;21.77;39.52;99572.45;25163;1316;3026155;-72
2022/08/25 04:56:51;;;;;;;9.00;3.90;;;;;;;21.86;39.25;99572.36;25106;1316;3052295;-73
2022/08/25 04:59:20;;;;;;;13.10;4.50;;;;;;;21.91;39.40;99568.05;25110;1315;3026093;-72
2022/08/25 05:01:50;;;;;;;14.60;4.50;;;;;;;21.95;39.43;99566.59;25179;1316;3054933;-73
2022/08/25 05:04:20;;;;;;;17.20;3.70;;;;;;;22.01;39.13;99568.14;25099;1316;3028677;-66
2022/08/25 05:06:50;;;;;;;7.90;3.70;;;;;;;22.09;39.08;99567.09;25202;1316;3049797;-67
2022/08/25 05:09:19;;;;;;;21.00;4.50;;;;;;;22.12;39.50;99565.11;25049;1316;3026328;-68
2022/08/25 05:11:48;;;;;;;13.00;3.90;;;;;;;22.18;39.33;99560.84;25119;1316;3026560;-71
2022/08/25 05:14:20;;;;;;;13.80;3.90;;;;;;;22.20;39.67;99566.86;25128;1316;3050744;-75
2022/08/25 05:16:50;;;;;;;11.20;4.40;;;;;;;22.23;39.36;99559.68;25169;1316;3027127;-75
2022/08/25 05:19:19;;;;;;;11.30;4.10;;;;;;;22.34;39.33;99564.41;25053;1315;3030436;-72
2022/08/25 05:21:48;;;;;;;10.50;4.20;;;;;;;22.41;39.32;99565.13;25091;1316;3026314;-73
2022/08/25 05:24:17;;;;;;;11.00;4.10;;;;;;;22.51;39.29;99566.20;25095;1316;3051753;-70
2022/08/25 05:26:46;;;;;;;12.50;4.20;;;;;;;22.58;39.51;99565.25;25091;1316;3026789;-71
2022/08/25 05:29:15;;;;;;;14.50;4.30;;;;;;;22.62;39.59;99563.18;25114;1315;3048657;-69
2022/08/25 05:31:44;;;;;;;8.80;3.90;;;;;;;22.68;39.41;99561.42;25151;1316;3026754;-72
2022/08/25 05:34:13;;;;;;;10.40;3.90;;;;;;;22.75;39.52;99561.59;25107;1313;3068393;-69
2022/08/25 05:36:44;;;;;;;9.90;3.70;;;;;;;22.84;39.30;99561.34;25230;1313;3026891;-74
2022/08/25 06:38:59;;;;;;;9.80;3.00;;;;;;;24.59;36.28;99538.04;25067;1316;3068455;-65
2022/08/25 06:41:29;;;;;;;12.20;3.50;;;;;;;24.70;36.49;99539.38;25076;1315;3026479;-72
2022/08/25 06:43:58;;;;;;;6.60;3.20;;;;;;;24.81;36.12;99538.28;25116;1315;3051361;-69
2022/08/25 06:46:29;;;;;;;14.40;3.50;;;;;;;24.92;35.90;99536.39;25073;1316;3026250;-77
2022/08/25 06:48:59;;;;;;;10.30;3.40;;;;;;;25.05;35.43;99530.41;25087;1315;3053966;-69
2022/08/25 06:51:28;;;;;;;11.10;3.30;;;;;;;25.17;34.54;99527.50;25048;1315;3026114;-72
2022/08/25 06:53:58;;;;;;;10.10;3.40;;;;;;;25.28;34.72;99520.95;25109;1316;3026836;-71
2022/08/25 06:56:27;;;;;;;13.30;3.20;;;;;;;25.41;34.40;99518.52;25098;1316;3052216;-71
2022/08/25 06:58:57;;;;;;;10.90;3.40;;;;;;;25.48;34.13;99515.95;25058;1315;3026916;-64
2022/08/25 07:01:26;;;;;;;8.90;3.20;;;;;;;25.56;33.88;99509.51;25048;1316;3048968;-65
2022/08/25 07:03:58;;;;;;;10.60;2.70;;;;;;;25.71;33.64;99508.06;25194;1315;3026908;-73
2022/08/25 07:06:29;;;;;;;8.90;2.80;;;;;;;25.78;33.16;99511.77;25125;1315;3056823;-66
2022/08/25 07:08:58;;;;;;;6.20;3.00;;;;;;;25.90;33.03;99507.64;25176;1315;3026901;-68
2022/08/25 07:11:33;;;;;;;7.70;2.90;;;;;;;26.00;32.79;99509.91;25162;1315;3027512;-68
2022/08/25 07:14:03;;;;;;;8.80;3.00;;;;;;;26.10;32.74;99508.92;25214;1313;3026564;-69
2022/08/25 07:16:34;;;;;;;6.50;2.90;;;;;;;26.22;32.35;99511.48;25166;1316;3026348;-69
2022/08/25 07:19:03;;;;;;;11.50;2.80;;;;;;;26.35;32.23;99505.52;25097;1313;3026784;-72
2022/08/25 07:21:33;;;;;;;7.20;2.30;;;;;;;26.45;32.04;99503.84;25128;1312;3026986;-74
2022/08/25 07:24:10;;;;;;;6.50;2.70;;;;;;;26.57;31.83;99502.16;25093;1313;3027632;-71
2022/08/25 07:26:40;;;;;;;7.60;2.70;;;;;;;26.69;31.45;99500.84;25085;1313;3057295;-74
2022/08/25 07:29:18;;;;;;;7.80;2.60;;;;;;;26.80;31.27;99503.24;25159;1313;3026164;-77
2022/08/25 07:31:47;;;;;;;10.80;2.70;;;;;;;26.90;31.10;99494.56;25124;1313;3055189;-70
2022/08/25 07:37:04;;;;;;;8.20;2.60;;;;;;;27.12;30.65;99487.45;25060;1313;3068947;-76
2022/08/25 07:39:34;;;;;;;10.00;3.00;;;;;;;27.21;30.19;99476.33;25070;1313;3028351;-73
2022/08/25 07:42:04;;;;;;;6.10;2.90;;;;;;;27.31;29.91;99470.55;25129;1313;3027229;-73
2022/08/25 07:44:33;;;;;;;5.10;2.20;;;;;;;27.40;29.46;99468.73;25107;1313;3029943;-73
2022/08/25 07:47:03;;;;;;;10.30;3.10;;;;;;;27.50;29.19;99464.88;25074;1313;3026515;-69
2022/08/25 07:49:32;;;;;;;8.40;2.80;;;;;;;27.58;28.66;99459.66;25081;1312;3026493;-75
2022/08/25 07:52:01;;;;;;;10.30;2.40;;;;;;;27.68;28.36;99458.02;25103;1312;3026214;-68
2022/08/25 07:54:31;;;;;;;7.60;2.50;;;;;;;27.76;28.60;99454.13;25111;1313;3058291;-67
2022/08/25 07:57:04;;;;;;;8.50;2.80;;;;;;;27.83;27.73;99454.90;25116;1315;3026476;-71
2022/08/25 07:59:38;;;;;;;7.20;2.50;;;;;;;27.93;27.84;99449.20;25098;1316;3053607;-62
2022/08/25 08:02:09;;;;;;;8.60;3.70;;;;;;;28.07;27.73;99453.55;25176;1312;3026624;-65
2022/08/25 08:04:38;;;;;;;13.00;3.30;;;;;;;28.17;27.91;99448.02;25095;1313;3026481;-72
2022/08/25 08:07:07;;;;;;;9.90;3.00;;;;;;;28.22;27.37;99444.33;25096;1313;3026984;-71
2022/08/25 08:09:37;;;;;;;12.40;2.60;;;;;;;28.26;26.79;99440.09;25051;1313;3026830;-76
2022/08/25 08:12:06;;;;;;;7.50;3.40;;;;;;;28.39;26.82;99432.58;25104;1313;3026978;-72
2022/08/25 08:14:38;;;;;;;12.10;3.60;;;;;;;28.47;26.75;99432.08;25066;1316;3048836;-67
2022/08/25 08:17:08;;;;;;;15.30;3.20;;;;;;;28.51;26.92;99428.11;25156;1312;3026452;-70
2022/08/25 08:19:37;;;;;;;8.10;2.30;;;;;;;28.62;27.17;99422.29;25120;1316;3070489;-72
2022/08/25 08:22:06;;;;;;;9.90;2.40;;;;;;;28.73;27.09;99419.63;25081;1315;3026842;-64
2022/08/25 08:24:38;;;;;;;4.90;2.30;;;;;;;28.88;26.86;99417.80;25140;1313;3050518;-69
2022/08/25 08:27:07;;;;;;;10.30;2.20;;;;;;;28.95;26.06;99407.83;25093;1312;3025862;-73
2022/08/25 08:29:37;;;;;;;13.00;3.00;;;;;;;29.02;25.99;99410.17;25219;1313;3027650;-73
2022/08/25 08:32:09;;;;;;;6.70;2.30;;;;;;;29.05;26.17;99410.61;25105;1312;3029945;-74
2022/08/25 08:34:42;;;;;;;7.30;2.10;;;;;;;29.14;25.95;99401.04;25067;1313;3026462;-68
2022/08/25 08:37:11;;;;;;;13.50;2.80;;;;;;;29.21;25.73;99402.04;25117;1313;3026938;-64
2022/08/25 08:39:41;;;;;;;7.00;2.40;;;;;;;29.22;25.85;99396.17;25082;1313;3026854;-67
2022/08/25 08:42:36;;;;;;;7.70;2.40;;;;;;;29.28;25.36;99392.73;25135;1313;3053314;-68
2022/08/25 08:45:20;;;;;;;7.90;1.90;;;;;;;29.39;25.08;99392.35;25098;1312;3058544;-68
2022/08/25 08:48:08;;;;;;;6.10;1.90;;;;;;;29.48;24.80;99393.58;25097;1313;3052516;-66
2022/08/25 08:51:00;;;;;;;10.80;2.20;;;;;;;29.58;24.83;99385.22;25144;1313;3053313;-71
2022/08/25 08:53:50;;;;;;;16.10;2.00;;;;;;;29.67;24.53;99385.15;25059;1312;3053563;-67
2022/08/25 08:56:25;;;;;;;11.70;2.30;;;;;;;29.72;24.95;99381.75;25092;1313;3070657;-75
2022/08/25 08:58:56;;;;;;;14.10;2.40;;;;;;;29.81;24.01;99379.66;25058;1313;3052015;-74
2022/08/25 09:01:28;;;;;;;17.30;2.10;;;;;;;29.80;24.27;99376.88;25128;1313;3027382;-72
2022/08/25 09:04:05;;;;;;;9.70;2.20;;;;;;;29.94;24.41;99379.79;25087;1312;3026991;-67
2022/08/25 09:06:43;;;;;;;7.00;1.80;;;;;;;30.04;24.73;99373.15;25083;1312;3056269;-69
2022/08/25 09:09:23;;;;;;;7.50;2.40;;;;;;;30.09;24.48;99365.31;25127;1313;3049793;-70
2022/08/25 09:12:13;;;;;;;13.70;1.90;;;;;;;30.15;23.25;99360.92;25140;1313;3055916;-70
2022/08/25 09:14:58;;;;;;;21.30;2.50;;;;;;;30.12;22.27;99358.13;25105;1313;3051684;-66
2022/08/25 09:17:55;;;;;;;12.70;2.30;;;;;;;30.13;22.29;99356.54;25033;1313;3071611;-65
2022/08/25 09:20:37;;;;;;;11.60;1.90;;;;;;;30.16;22.13;99357.88;25082;1313;3051548;-70
2022/08/25 09:23:18;;;;;;;25.10;2.50;;;;;;;30.21;22.37;99342.70;25050;1313;3054053;-66
2022/08/25 09:25:54;;;;;;;15.50;2.30;;;;;;;30.22;22.36;99346.19;25114;1313;3052071;-71
2022/08/25 09:28:35;;;;;;;14.60;2.40;;;;;;;30.27;22.21;99348.63;25109;1313;3058923;-74
2022/08/25 09:31:31;;;;;;;5.10;2.10;;;;;;;30.39;22.36;99347.53;25048;1313;3051877;-71
2022/08/25 09:34:02;;;;;;;5.10;2.00;;;;;;;30.50;22.35;99340.36;25105;1313;3053548;-65
2022/08/25 09:36:32;;;;;;;10.90;2.70;;;;;;;30.60;22.32;99337.19;25125;1313;3026727;-68
2022/08/25 09:39:03;;;;;;;51.20;4.90;;;;;;;30.59;22.91;99324.56;25141;1313;3026687;-65
2022/08/25 09:41:43;;;;;;;20.60;3.80;;;;;;;30.67;22.56;99336.35;25087;1313;3026869;-68
2022/08/25 09:44:48;;;;;;;9.50;2.70;;;;;;;30.73;22.64;99336.70;25096;1313;3052557;-68
2022/08/25 09:47:17;;;;;;;8.30;2.50;;;;;;;30.78;23.03;99334.16;24878;1321;3055174;-69
2022/08/25 09:50:04;;;;;;;9.00;2.30;;;;;;;30.86;23.13;99339.23;25074;1313;3026987;-64
2022/08/25 09:52:37;;;;;;;11.30;2.00;;;;;;;30.98;22.87;99334.20;25060;1313;3055280;-69
2022/08/25 09:55:15;;;;;;;9.30;2.90;;;;;;;31.12;23.26;99334.11;25107;1316;3026686;-65
2022/08/25 09:57:47;;;;;;;5.90;2.10;;;;;;;31.18;23.23;99330.91;25095;1313;3059115;-64
2022/08/25 10:00:28;;;;;;;5.70;2.20;;;;;;;31.21;22.68;99328.65;25071;1313;3028241;-68
2022/08/25 10:03:19;;;;;;;10.00;2.20;;;;;;;31.17;22.22;99320.08;25114;1313;3055971;-71
2022/08/25 10:05:48;;;;;;;12.00;2.00;;;;;;;31.30;21.71;99320.73;24432;1313;4527337;-68
2022/08/25 10:08:44;;;;;;;6.70;2.20;;;;;;;31.32;21.98;99317.86;25091;1313;3052125;-75
2022/08/25 10:11:32;;;;;;;15.80;2.50;;;;;;;31.53;22.21;99322.65;25086;1313;3053140;-67
2022/08/25 10:14:14;;;;;;;9.20;1.90;;;;;;;31.59;22.62;99320.77;25102;1313;3051773;-67
2022/08/25 10:16:45;;;;;;;6.70;2.20;;;;;;;31.54;22.81;99312.42;25091;1316;3070865;-73
2022/08/25 10:19:20;;;;;;;51.00;3.60;;;;;;;31.52;22.13;99307.01;25066;1313;3026631;-69
2022/08/25 10:22:03;;;;;;;12.50;1.80;;;;;;;31.64;21.85;99315.43;25118;1313;3052474;-69
2022/08/25 10:24:32;;;;;;;5.90;1.80;;;;;;;31.58;21.24;99310.96;25079;1315;3052850;-70
2022/08/25 10:27:05;;;;;;;8.30;1.30;;;;;;;31.69;20.54;99309.55;25110;1316;3026653;-68
2022/08/25 10:29:52;;;;;;;6.50;1.90;;;;;;;31.77;19.55;99307.55;25090;1315;3026909;-68
2022/08/25 10:32:28;;;;;;;5.80;1.50;;;;;;;31.81;19.36;99309.37;25100;1313;3055015;-74
2022/08/25 10:34:58;;;;;;;8.10;1.60;;;;;;;31.89;19.49;99312.23;25124;1313;3054156;-66
2022/08/25 10:37:31;;;;;;;5.00;2.00;;;;;;;32.07;20.09;99315.55;25051;1313;3026566;-71
2022/08/25 10:40:09;;;;;;;10.20;2.50;;;;;;;32.15;20.23;99305.58;25111;1313;3026533;-68
2022/08/25 10:43:23;;;;;;;12.10;2.20;;;;;;;32.22;20.21;99307.25;25150;1312;3053007;-68
2022/08/25 10:46:08;;;;;;;6.20;1.90;;;;;;;32.38;20.24;99314.84;25144;1313;3055317;-69
2022/08/25 10:48:53;;;;;;;16.60;2.20;;;;;;;32.39;20.16;99310.87;25194;1313;3057283;-66
2022/08/25 10:51:51;;;;;;;10.20;1.80;;;;;;;32.49;20.21;99312.11;25130;1313;3054335;-69
2022/08/25 10:54:29;;;;;;;11.20;1.90;;;;;;;32.61;20.02;99302.12;25055;1313;3053414;-68
2022/08/25 10:57:02;;;;;;;9.20;1.60;;;;;;;32.66;19.79;99297.63;25061;1313;3051872;-73
2022/08/25 10:59:37;;;;;;;7.90;1.90;;;;;;;32.55;20.05;99300.15;25103;1313;3026439;-69
2022/08/25 11:02:30;;;;;;;5.50;1.60;;;;;;;32.63;19.90;99295.54;25121;1313;3050500;-70
2022/08/25 11:05:11;;;;;;;9.00;1.50;;;;;;;32.65;19.94;99301.58;25116;1313;3052815;-70
2022/08/25 11:07:43;;;;;;;7.20;1.80;;;;;;;32.82;20.20;99290.31;25058;1313;3052921;-68
2022/08/25 11:10:41;;;;;;;8.20;1.80;;;;;;;32.82;20.09;99296.19;25128;1315;3026649;-69
2022/08/25 11:13:37;;;;;;;4.20;1.70;;;;;;;32.75;19.88;99294.63;25083;1313;3054128;-69
2022/08/25 11:16:12;;;;;;;11.90;2.30;;;;;;;32.79;20.14;99284.42;25089;1313;3057124;-63
2022/08/25 11:19:07;;;;;;;9.40;2.20;;;;;;;32.73;20.23;99283.55;25116;1313;3054375;-67
2022/08/25 11:21:47;;;;;;;5.50;1.70;;;;;;;32.78;20.62;99281.58;25002;1313;3071651;-70
2022/08/25 11:24:28;;;;;;;10.20;2.10;;;;;;;32.88;20.45;99278.61;25054;1313;3048685;-69
2022/08/25 11:26:57;;;;;;;12.00;1.80;;;;;;;33.07;20.75;99282.27;25092;1313;3053264;-67
2022/08/25 11:29:30;;;;;;;7.50;2.40;;;;;;;33.20;20.48;99273.38;25079;1316;3026830;-69
2022/08/25 11:32:00;;;;;;;12.70;2.20;;;;;;;33.32;20.17;99274.17;25160;1313;3049392;-69
2022/08/25 11:34:34;;;;;;;7.80;1.60;;;;;;;33.44;20.03;99263.79;25064;1316;3029019;-66
2022/08/25 11:37:19;;;;;;;9.60;2.40;;;;;;;33.44;20.56;99267.89;25084;1313;3054782;-67
2022/08/25 11:40:02;;;;;;;14.10;2.40;;;;;;;33.55;20.73;99264.89;25060;1313;3056839;-65
2022/08/25 11:42:35;;;;;;;16.30;2.50;;;;;;;33.61;20.57;99262.35;25056;1312;3052889;-68
2022/08/25 11:45:23;;;;;;;6.20;2.20;;;;;;;33.71;20.57;99263.59;25107;1313;3026424;-64
2022/08/25 11:47:58;;;;;;;6.70;1.90;;;;;;;33.77;20.39;99257.19;25047;1313;3051694;-62
2022/08/25 11:50:33;;;;;;;6.60;2.20;;;;;;;33.93;20.31;99255.27;25083;1313;3070371;-69
2022/08/25 11:53:10;;;;;;;9.20;2.90;;;;;;;33.93;20.85;99255.18;25120;1312;3049150;-68
2022/08/25 11:55:47;;;;;;;9.30;2.00;;;;;;;33.89;20.34;99255.80;25093;1313;3054596;-69
2022/08/25 11:58:29;;;;;;;9.60;2.60;;;;;;;33.86;20.55;99257.83;25111;1313;3053963;-69
2022/08/25 12:01:00;;;;;;;5.70;2.60;;;;;;;34.00;20.66;99256.43;25132;1313;3056785;-67
2022/08/25 12:03:35;;;;;;;14.40;3.00;;;;;;;34.13;20.58;99245.27;25036;1315;3030856;-65
2022/08/25 12:06:13;;;;;;;11.00;2.40;;;;;;;34.32;20.49;99241.89;25128;1313;3053804;-63
2022/08/25 12:08:58;;;;;;;8.80;2.70;;;;;;;34.42;19.97;99244.74;25038;1313;3054046;-68
2022/08/25 12:11:53;;;;;;;12.90;2.70;;;;;;;34.41;20.09;99248.77;25025;1313;3071435;-68
2022/08/25 12:14:23;;;;;;;9.70;2.60;;;;;;;34.34;20.36;99240.73;25154;1313;3050437;-68
2022/08/25 12:16:55;;;;;;;6.20;2.30;;;;;;;34.56;20.26;99239.98;25097;1313;3027389;-66
2022/08/25 12:19:35;;;;;;;9.70;2.40;;;;;;;34.61;20.46;99238.56;25170;1313;3027299;-65
2022/08/25 12:22:04;;;;;;;12.00;2.80;;;;;;;34.71;20.40;99238.55;25115;1313;3058872;-67
2022/08/25 12:24:42;;;;;;;9.50;2.60;;;;;;;34.67;20.24;99238.53;25082;1313;3026738;-65
2022/08/25 12:27:18;;;;;;;12.50;3.00;;;;;;;34.69;20.06;99227.23;25082;1313;3053656;-64
2022/08/25 12:29:48;;;;;;;10.70;2.40;;;;;;;34.66;19.85;99216.90;25043;1313;3058838;-69
2022/08/25 12:32:23;;;;;;;12.90;2.50;;;;;;;34.68;19.97;99211.85;25094;1313;3026643;-68
2022/08/25 12:35:16;;;;;;;13.70;2.50;;;;;;;34.76;19.64;99210.62;25068;1314;3054930;-67
2022/08/25 12:38:07;;;;;;;8.30;2.30;;;;;;;34.82;19.49;99202.89;25088;1313;3054237;-65
2022/08/25 12:40:42;;;;;;;10.00;2.30;;;;;;;34.79;19.42;99204.70;25059;1316;3069904;-70
2022/08/25 12:43:23;;;;;;;5.90;2.30;;;;;;;34.86;19.41;99205.43;25097;1313;3050134;-66
2022/08/25 12:45:55;;;;;;;13.50;2.40;;;;;;;34.94;19.49;99203.54;25056;1313;3055334;-61
2022/08/25 12:48:26;;;;;;;11.10;2.90;;;;;;;34.90;19.42;99207.70;25112;1313;3026350;-68